Aérodrome :
LOGIN :

S'inscrire | Disclaimer

   EN    FR    IT 

 










Légende :    VFR   VFR Marginal   IFR   IFR Intensif   IFR Très Intensif
Visi : 
Plafond : 
>= 8 km
>= 3000ft
5 à 8 km
1000 à 3000 ft
1500m à 5 km
500 à 1000 ft
800 à 1500m
200 à 500 ft
< 800m
< 200 ft
Symboles :   Orages  Brouillard  Fortes neiges  Fortes précipitations  Vent > 20 kt
SIGMETs :   Divers  Orages  Givrage  Turbulence  Onde Orograph.  Cendres Volcan.







- Altitude de l'aérodrome : 13 ft
- Code IATA : SNR
- Voir les cartes d'approche


LFRZ - St-Nazaire

DERNIER METAR :
  • 232130Z AUTO 21012KT 4800 -RADZ BR OVC003 12/11 Q1024 NOSIG

METARs EXPIRÉS :
  • 232100Z AUTO 23013KT 7000 OVC004 12/12 Q1024 TEMPO 3000 -DZ
  • 232030Z AUTO 23015KT 6000 -RADZ OVC003 12/12 Q1024 TEMPO 3000 -DZ
  • 232000Z AUTO 23014KT 8000 OVC003 12/12 Q1024 TEMPO 3000 -DZ
  • 231930Z AUTO 23014KT 8000 -DZ OVC005 12/12 Q1024 TEMPO 3000 -DZ
  • 231900Z AUTO 23013KT 7000 OVC005 12/12 Q1024 TEMPO 3000 -DZ

TAF TAF LFRZ
Valide du 23 à 18h jusqu'au 24 à 18h UTC


231700Z 2318/2418 23012KT 6000 BKN006
TEMPO 2318/2404 3000 -DZ OVC003
BECMG 2404/2406 23015G25KT BKN012
BECMG 2414/2416 20020G35KT 4000 -RA BKN006 BKN030
Pas de NOTAMs connus pour ce terrain.



MET'MAP, la Météo Aéronautique d'un coup d'oeil ! - Copyright ORBIFLY Décembre 2007 - Disclaimer

ORBIFLY MET'MAP TEAM :

Programmation & Développement : Alexandra Zaïnal
Conception & Développement : Baudouin d'Aumeries
Co-Programmation & Développement : Marc-Olivier Méhu
Soutien technique & logistique : Manuel Goepfert

Contact : metmap@orbifly.com




SOURCES & CREDITS :

   NOAA